Time;durP1;ratioP1;P1;durP2;ratioP2;P2;SDS_P1;SDS_P2;PMS_P1;PMS_P2;Temp;Humidity;BMP_temperature;BMP_pressure;BME280_temperature;BME280_humidity;BME280_pressure;Samples;Min_cycle;Max_cycle;Signal;HPM_P1;HPM_P2
2021/12/02 00:00:39;;;;;;;3.53;1.80;;;23.20;39.00;;;;;;5024944;28;20120;-45
2021/12/02 00:03:07;;;;;;;3.35;1.75;;;23.20;38.90;;;;;;5024617;28;20662;-45
2021/12/02 00:05:33;;;;;;;3.97;1.65;;;23.20;38.90;;;;;;5025043;28;20417;-45
2021/12/02 00:07:59;;;;;;;3.38;1.60;;;23.20;38.90;;;;;;5038335;28;20029;-45
2021/12/02 00:10:28;;;;;;;5.22;1.90;;;23.20;38.90;;;;;;5028524;28;20021;-45
2021/12/02 00:12:56;;;;;;;3.20;1.58;;;23.20;38.90;;;;;;5023993;28;20026;-45
2021/12/02 00:15:25;;;;;;;3.70;2.00;;;23.10;39.00;;;;;;5026335;28;20628;-45
2021/12/02 00:18:28;;;;;;;3.80;2.13;;;23.10;39.00;;;;;;5026162;28;20021;-45
2021/12/02 00:21:04;;;;;;;3.53;1.40;;;23.10;38.90;;;;;;5026177;28;20025;-45
2021/12/02 00:23:50;;;;;;;3.55;1.77;;;23.10;38.90;;;;;;5024150;28;20897;-45
2021/12/02 00:26:18;;;;;;;2.75;1.27;;;23.10;38.90;;;;;;5024666;28;20020;-46
2021/12/02 00:28:46;;;;;;;2.75;1.45;;;23.10;38.90;;;;;;5026251;28;20033;-45
2021/12/02 00:31:21;;;;;;;2.85;1.30;;;23.10;39.00;;;;;;5026549;28;20417;-45
2021/12/02 00:33:57;;;;;;;2.88;1.63;;;23.10;38.90;;;;;;5025937;28;20022;-45
2021/12/02 00:36:27;;;;;;;2.90;1.30;;;23.10;39.60;;;;;;5026321;28;20083;-45
2021/12/02 00:38:54;;;;;;;2.95;1.25;;;23.10;39.00;;;;;;5026092;28;20052;-45
2021/12/02 00:41:22;;;;;;;2.47;1.23;;;23.10;39.00;;;;;;5025791;28;20119;-45
2021/12/02 00:43:50;;;;;;;2.88;1.40;;;23.00;38.90;;;;;;5025535;28;20064;-45
2021/12/02 00:46:20;;;;;;;2.88;1.40;;;23.00;38.90;;;;;;5025452;28;20029;-45
2021/12/02 00:48:46;;;;;;;2.45;1.30;;;23.00;38.90;;;;;;5025416;28;20559;-45
2021/12/02 00:51:13;;;;;;;3.15;1.45;;;23.00;39.00;;;;;;5024842;28;20030;-45
2021/12/02 00:53:44;;;;;;;3.63;1.70;;;23.00;39.00;;;;;;5019134;28;20117;-45
2021/12/02 00:56:11;;;;;;;2.80;1.20;;;23.00;39.00;;;;;;5026786;28;20109;-45
2021/12/02 00:58:38;;;;;;;2.85;1.38;;;23.00;39.00;;;;;;5036325;28;20205;-45
2021/12/02 01:01:04;;;;;;;4.35;1.50;;;23.00;39.00;;;;;;5024985;28;20030;-45
2021/12/02 01:03:35;;;;;;;2.75;1.40;;;23.00;39.00;;;;;;5023597;28;20022;-45
2021/12/02 01:06:03;;;;;;;2.65;1.10;;;23.00;39.00;;;;;;5022420;28;20581;-45
2021/12/02 01:08:31;;;;;;;2.45;1.30;;;22.90;39.00;;;;;;5024809;28;20670;-45
2021/12/02 01:10:57;;;;;;;2.85;1.50;;;22.90;39.00;;;;;;5024746;28;20044;-45
2021/12/02 01:13:22;;;;;;;2.75;1.20;;;22.90;39.00;;;;;;5023982;28;20446;-45
2021/12/02 01:15:49;;;;;;;3.00;1.40;;;22.90;39.00;;;;;;5024022;28;20513;-45
2021/12/02 01:18:15;;;;;;;2.97;1.55;;;22.90;39.60;;;;;;5024033;28;20029;-45
2021/12/02 01:20:44;;;;;;;3.90;1.25;;;22.90;39.00;;;;;;5025034;28;20045;-45
2021/12/02 01:23:11;;;;;;;2.40;1.15;;;22.90;39.00;;;;;;5023866;28;20665;-45
2021/12/02 01:25:37;;;;;;;3.08;1.38;;;22.90;39.00;;;;;;5025569;28;20465;-45
2021/12/02 01:28:04;;;;;;;2.35;1.00;;;22.80;38.90;;;;;;5025282;28;20628;-45
2021/12/02 01:30:32;;;;;;;1.98;0.93;;;22.80;39.00;;;;;;5025167;28;20530;-45
2021/12/02 01:33:05;;;;;;;2.75;1.33;;;22.80;38.90;;;;;;5025106;28;20030;-45
2021/12/02 01:35:34;;;;;;;3.03;1.40;;;22.80;38.90;;;;;;5025242;28;20037;-44
2021/12/02 01:38:00;;;;;;;2.35;1.10;;;22.80;38.90;;;;;;5025216;28;20032;-45
2021/12/02 01:40:27;;;;;;;2.15;1.20;;;22.80;39.00;;;;;;5024464;28;20029;-46
2021/12/02 01:42:55;;;;;;;2.15;1.00;;;22.80;39.00;;;;;;5005240;28;20040;-45
2021/12/02 01:45:27;;;;;;;2.88;1.08;;;22.80;38.90;;;;;;5005139;28;20034;-45
2021/12/02 01:47:57;;;;;;;2.73;1.13;;;22.80;38.90;;;;;;5004774;28;20061;-46
2021/12/02 01:50:25;;;;;;;2.05;1.10;;;22.80;39.00;;;;;;5023218;28;20500;-45
2021/12/02 01:52:57;;;;;;;2.22;0.88;;;22.80;39.00;;;;;;5044124;28;20037;-46
2021/12/02 01:55:24;;;;;;;2.45;1.17;;;22.80;39.00;;;;;;5044985;28;20037;-45
2021/12/02 01:58:05;;;;;;;2.35;1.00;;;22.80;39.00;;;;;;5024546;28;20029;-45
2021/12/02 02:00:42;;;;;;;2.20;1.10;;;22.80;39.00;;;;;;5023070;28;20044;-46
2021/12/02 02:03:09;;;;;;;2.00;1.00;;;22.80;39.00;;;;;;5023986;28;20032;-46
2021/12/02 02:05:36;;;;;;;2.03;1.00;;;22.70;39.10;;;;;;5023780;28;20634;-45
2021/12/02 02:08:10;;;;;;;2.03;0.90;;;22.70;39.10;;;;;;5024047;28;20025;-45
2021/12/02 02:10:39;;;;;;;2.17;1.17;;;22.70;39.20;;;;;;5023408;28;20052;-46
2021/12/02 02:13:10;;;;;;;2.80;1.10;;;22.80;39.40;;;;;;5022699;28;20028;-45
2021/12/02 02:15:37;;;;;;;2.67;1.15;;;22.70;39.30;;;;;;5022393;28;20056;-45
2021/12/02 02:18:10;;;;;;;2.15;1.00;;;22.70;39.30;;;;;;5023803;28;20025;-45
2021/12/02 02:20:41;;;;;;;1.42;0.63;;;22.70;39.40;;;;;;5024383;28;20025;-45
2021/12/02 02:23:10;;;;;;;2.60;1.10;;;22.70;39.40;;;;;;5024505;28;20087;-45
2021/12/02 02:25:36;;;;;;;2.63;1.08;;;22.70;39.50;;;;;;5023980;28;20091;-46
2021/12/02 02:28:02;;;;;;;2.45;1.15;;;22.70;39.50;;;;;;5023072;28;20025;-45
2021/12/02 02:30:28;;;;;;;2.03;0.75;;;22.70;39.50;;;;;;5023351;28;20033;-45
2021/12/02 02:32:53;;;;;;;1.85;0.80;;;22.70;39.50;;;;;;5022412;28;20051;-45
2021/12/02 02:35:19;;;;;;;1.90;1.00;;;22.70;39.50;;;;;;5024336;28;20026;-46
2021/12/02 02:37:45;;;;;;;1.50;0.75;;;22.60;39.40;;;;;;5020945;28;20029;-45
2021/12/02 02:40:13;;;;;;;2.05;0.80;;;22.60;39.40;;;;;;5023527;28;20108;-45
2021/12/02 02:42:39;;;;;;;2.10;0.98;;;22.60;39.40;;;;;;5022347;28;20044;-45
2021/12/02 02:45:05;;;;;;;1.77;0.77;;;22.60;39.30;;;;;;5023445;28;20037;-45
2021/12/02 02:47:31;;;;;;;1.70;0.80;;;22.60;39.30;;;;;;5023398;28;20791;-45
2021/12/02 02:49:56;;;;;;;1.58;0.80;;;22.60;39.30;;;;;;5028262;28;20565;-45
2021/12/02 02:52:22;;;;;;;1.55;0.60;;;22.60;39.20;;;;;;5041948;28;20029;-46
2021/12/02 02:54:49;;;;;;;1.38;0.73;;;22.60;39.20;;;;;;5044070;28;20397;-45
2021/12/02 02:57:17;;;;;;;2.22;1.05;;;22.60;39.30;;;;;;5017888;28;20379;-45
2021/12/02 03:00:04;;;;;;;1.90;0.70;;;22.60;39.30;;;;;;5023142;28;20041;-45
2021/12/02 03:02:38;;;;;;;1.77;0.68;;;22.60;39.30;;;;;;5023629;28;20026;-45
2021/12/02 03:10:12;;;;;;;1.42;0.60;;;22.60;39.20;;;;;;5023773;28;20060;-45
2021/12/02 03:12:42;;;;;;;1.70;0.70;;;22.60;39.20;;;;;;5022465;28;20451;-45
2021/12/02 03:17:35;;;;;;;1.45;0.70;;;22.60;39.20;;;;;;5022855;28;20018;-45
2021/12/02 03:20:01;;;;;;;2.28;0.82;;;22.60;39.20;;;;;;5023543;28;20064;-45
2021/12/02 03:22:27;;;;;;;2.38;1.05;;;22.60;39.20;;;;;;5022511;28;20026;-45
2021/12/02 03:24:53;;;;;;;1.63;0.63;;;22.50;39.20;;;;;;5023698;28;20164;-45
2021/12/02 03:27:19;;;;;;;2.40;1.33;;;22.50;39.20;;;;;;5023043;28;20696;-45
2021/12/02 03:29:44;;;;;;;1.58;0.65;;;22.60;39.20;;;;;;5023718;28;20529;-46
2021/12/02 03:32:11;;;;;;;2.17;0.80;;;22.60;39.20;;;;;;5023220;28;20136;-50
2021/12/02 03:34:38;;;;;;;1.55;0.73;;;22.50;39.20;;;;;;5023682;28;20033;-45
2021/12/02 03:37:05;;;;;;;1.42;0.60;;;22.50;39.20;;;;;;5023583;28;20460;-45
2021/12/02 03:39:31;;;;;;;2.13;0.77;;;22.50;39.20;;;;;;5023661;28;20091;-45
2021/12/02 03:41:57;;;;;;;1.48;0.60;;;22.50;39.20;;;;;;5015003;28;20034;-45
2021/12/02 03:44:24;;;;;;;1.83;0.77;;;22.50;39.30;;;;;;5005777;28;20038;-45
2021/12/02 03:46:51;;;;;;;1.20;0.50;;;22.50;39.30;;;;;;5006285;28;20109;-45
2021/12/02 03:49:17;;;;;;;1.52;0.65;;;22.50;39.40;;;;;;4988962;28;20030;-45
2021/12/02 03:51:43;;;;;;;1.02;0.47;;;22.50;39.40;;;;;;5044857;28;20090;-45
2021/12/02 03:54:08;;;;;;;1.63;0.88;;;22.50;39.40;;;;;;5046327;28;20033;-45
2021/12/02 03:56:34;;;;;;;1.70;0.70;;;22.50;39.40;;;;;;5039147;28;20025;-45
2021/12/02 03:59:00;;;;;;;1.65;0.70;;;22.50;39.40;;;;;;5027223;28;20034;-46
2021/12/02 04:01:26;;;;;;;1.73;0.57;;;22.50;39.40;;;;;;5026591;28;20044;-45
2021/12/02 04:03:52;;;;;;;1.17;0.47;;;22.50;39.40;;;;;;5026732;28;20037;-45
2021/12/02 04:06:19;;;;;;;2.17;0.70;;;22.50;39.50;;;;;;5026972;28;20094;-45
2021/12/02 04:08:49;;;;;;;1.40;0.68;;;22.50;39.50;;;;;;5026381;28;20406;-45
2021/12/02 04:16:18;;;;;;;1.48;0.60;;;22.50;39.30;;;;;;5026989;28;20113;-45
2021/12/02 04:18:44;;;;;;;1.38;0.50;;;22.50;39.30;;;;;;5025916;28;20029;-45
2021/12/02 04:21:10;;;;;;;1.10;0.50;;;22.50;39.30;;;;;;5026751;28;20022;-45
2021/12/02 04:23:36;;;;;;;1.25;0.40;;;22.50;39.30;;;;;;5026234;28;20562;-45
2021/12/02 04:26:02;;;;;;;1.27;0.55;;;22.50;39.30;;;;;;5026879;28;20541;-45
2021/12/02 04:28:28;;;;;;;1.52;0.60;;;22.50;39.30;;;;;;5026336;28;20081;-45
2021/12/02 04:30:54;;;;;;;1.63;0.60;;;22.50;39.30;;;;;;5025659;28;20613;-45
2021/12/02 04:33:19;;;;;;;1.65;0.50;;;22.40;39.20;;;;;;5025403;28;20030;-45
2021/12/02 04:35:45;;;;;;;1.15;0.50;;;22.40;39.20;;;;;;5025588;28;20083;-45
2021/12/02 04:38:11;;;;;;;1.50;0.60;;;22.40;39.20;;;;;;5023687;28;20029;-46
2021/12/02 04:40:40;;;;;;;1.05;0.43;;;22.40;39.20;;;;;;5025469;28;20034;-45
2021/12/02 04:43:06;;;;;;;1.70;0.60;;;22.50;39.30;;;;;;5006861;28;20038;-45
2021/12/02 04:45:32;;;;;;;1.55;0.45;;;22.40;39.20;;;;;;5006602;28;20038;-45
2021/12/02 04:47:58;;;;;;;1.52;0.70;;;22.40;39.20;;;;;;5005830;28;20034;-45
2021/12/02 04:50:24;;;;;;;1.25;0.70;;;22.40;39.20;;;;;;5023987;28;20025;-49
2021/12/02 04:52:50;;;;;;;1.23;0.55;;;22.40;39.20;;;;;;5044075;28;20080;-45
2021/12/02 04:55:16;;;;;;;1.42;0.50;;;22.40;39.20;;;;;;5046375;28;20038;-45
2021/12/02 04:57:41;;;;;;;1.27;0.57;;;22.40;39.20;;;;;;5030229;28;20026;-45
2021/12/02 05:00:08;;;;;;;1.80;0.65;;;22.40;39.20;;;;;;5024645;28;20037;-44
2021/12/02 05:02:33;;;;;;;0.93;0.70;;;22.40;39.20;;;;;;5005436;28;20033;-45
2021/12/02 05:04:59;;;;;;;0.95;0.40;;;22.40;39.20;;;;;;5006083;28;20534;-45
2021/12/02 05:07:25;;;;;;;0.85;0.40;;;22.40;39.20;;;;;;5005945;28;20034;-44
2021/12/02 05:09:50;;;;;;;1.13;0.50;;;22.40;39.20;;;;;;5005684;28;20042;-45
2021/12/02 05:12:16;;;;;;;1.38;0.50;;;22.40;39.30;;;;;;5009860;28;20034;-45
2021/12/02 05:14:42;;;;;;;1.42;0.50;;;22.40;39.30;;;;;;5005660;28;20034;-45
2021/12/02 05:17:07;;;;;;;1.33;0.50;;;22.40;39.40;;;;;;5005526;28;20022;-45
2021/12/02 05:19:33;;;;;;;1.35;0.60;;;22.40;39.50;;;;;;5005392;28;20096;-45
2021/12/02 05:21:59;;;;;;;1.00;0.35;;;22.40;39.60;;;;;;5004232;28;20030;-44
2021/12/02 05:24:25;;;;;;;0.77;0.40;;;22.40;39.70;;;;;;5005666;28;20030;-45
2021/12/02 05:26:50;;;;;;;0.88;0.40;;;22.40;39.70;;;;;;5012729;28;20053;-45
2021/12/02 05:29:16;;;;;;;1.52;0.60;;;22.40;39.80;;;;;;5024788;28;20460;-45
2021/12/02 05:31:42;;;;;;;1.15;0.40;;;22.40;39.80;;;;;;5024752;28;20033;-45
2021/12/02 05:34:07;;;;;;;1.42;0.55;;;22.50;40.00;;;;;;5023708;28;20040;-44
2021/12/02 05:36:33;;;;;;;1.02;0.43;;;22.50;40.00;;;;;;5025125;28;20751;-45
2021/12/02 05:38:59;;;;;;;0.57;0.30;;;22.60;40.10;;;;;;5024652;28;20041;-45
2021/12/02 05:41:24;;;;;;;1.35;0.50;;;22.60;40.00;;;;;;5024746;28;20032;-44
2021/12/02 05:43:50;;;;;;;0.98;0.35;;;22.70;40.10;;;;;;5023972;28;20565;-45
2021/12/02 05:46:16;;;;;;;1.27;0.45;;;22.70;40.00;;;;;;5025135;28;20452;-45
2021/12/02 05:48:42;;;;;;;0.88;0.40;;;22.80;39.90;;;;;;5024580;28;20030;-45
2021/12/02 05:51:08;;;;;;;0.75;0.38;;;22.80;39.90;;;;;;5040219;28;20044;-45
2021/12/02 05:53:33;;;;;;;1.10;0.40;;;22.80;39.90;;;;;;5044488;28;20025;-45
2021/12/02 05:55:59;;;;;;;1.10;0.30;;;22.90;39.90;;;;;;5044194;28;20035;-45
2021/12/02 05:58:25;;;;;;;0.70;0.40;;;23.00;39.80;;;;;;5024150;28;20029;-45
2021/12/02 06:00:51;;;;;;;1.05;0.40;;;23.00;39.70;;;;;;5024163;28;20037;-45
2021/12/02 06:03:17;;;;;;;1.05;0.50;;;23.10;39.70;;;;;;5023952;28;20237;-45
2021/12/02 06:05:45;;;;;;;1.27;0.55;;;23.10;39.60;;;;;;5023667;28;20040;-46
2021/12/02 06:08:11;;;;;;;1.55;0.30;;;23.20;39.60;;;;;;5024194;28;20033;-46
2021/12/02 06:10:37;;;;;;;1.65;0.40;;;23.20;39.50;;;;;;5023384;28;20029;-45
2021/12/02 06:13:02;;;;;;;1.85;0.38;;;23.30;39.70;;;;;;5020684;28;20025;-45
2021/12/02 06:15:28;;;;;;;1.88;0.47;;;23.30;39.70;;;;;;5023945;28;20034;-45
2021/12/02 06:17:54;;;;;;;1.23;0.30;;;23.30;39.90;;;;;;5023641;28;20079;-46
2021/12/02 06:20:20;;;;;;;2.63;0.60;;;23.30;40.30;;;;;;5024039;28;20034;-45
2021/12/02 06:22:47;;;;;;;1.05;0.40;;;23.40;40.30;;;;;;5023478;28;20053;-46
2021/12/02 06:27:52;;;;;;;1.45;0.40;;;23.50;40.30;;;;;;5019624;28;20018;-45
2021/12/02 06:30:20;;;;;;;10.40;0.73;;;23.60;40.10;;;;;;5021998;28;20175;-45
2021/12/02 06:32:45;;;;;;;2.35;0.47;;;23.70;40.00;;;;;;5019689;28;20034;-46
2021/12/02 06:35:12;;;;;;;2.75;0.75;;;23.70;40.00;;;;;;5023273;28;20119;-45
2021/12/02 06:37:39;;;;;;;4.47;0.70;;;23.80;40.00;;;;;;5023144;28;20028;-46
2021/12/02 06:40:06;;;;;;;2.67;0.80;;;23.80;40.50;;;;;;5020299;28;20574;-44
2021/12/02 06:42:32;;;;;;;2.20;0.80;;;23.90;40.60;;;;;;5021932;28;20640;-43
2021/12/02 06:44:58;;;;;;;1.80;0.80;;;23.90;40.40;;;;;;5021830;28;20029;-45
2021/12/02 06:47:30;;;;;;;2.20;0.90;;;23.90;40.40;;;;;;5023771;28;20021;-46
2021/12/02 06:49:59;;;;;;;1.60;0.80;;;23.90;40.40;;;;;;5023293;28;20048;-46
2021/12/02 06:52:27;;;;;;;3.47;1.23;;;24.00;40.50;;;;;;5020405;28;20029;-46
2021/12/02 06:54:55;;;;;;;3.13;1.45;;;24.00;40.40;;;;;;5023318;28;20021;-46
2021/12/02 06:57:22;;;;;;;3.33;1.33;;;24.00;40.40;;;;;;5022171;28;20040;-47
2021/12/02 06:59:48;;;;;;;2.63;1.20;;;24.00;40.40;;;;;;5019926;28;20049;-49
2021/12/02 07:02:14;;;;;;;3.42;1.30;;;24.00;40.20;;;;;;5018609;28;20025;-47
2021/12/02 07:04:40;;;;;;;2.50;1.40;;;24.00;40.20;;;;;;5022385;28;20021;-42
2021/12/02 07:07:05;;;;;;;3.17;1.40;;;24.00;40.30;;;;;;5022171;28;20026;-43
2021/12/02 07:09:31;;;;;;;2.90;1.50;;;24.10;39.90;;;;;;5025751;28;20029;-43
2021/12/02 07:11:57;;;;;;;5.65;1.63;;;24.10;40.10;;;;;;5019070;28;20041;-43
2021/12/02 07:14:25;;;;;;;3.17;1.63;;;24.10;39.70;;;;;;5022752;28;20056;-43
2021/12/02 07:16:51;;;;;;;3.50;1.45;;;24.10;39.70;;;;;;5025286;28;20034;-46
2021/12/02 07:19:18;;;;;;;3.75;1.25;;;24.10;39.50;;;;;;5026349;28;20033;-47
2021/12/02 07:21:45;;;;;;;3.28;1.45;;;24.10;39.20;;;;;;5026202;28;20093;-47
2021/12/02 07:24:14;;;;;;;3.28;1.33;;;24.20;39.10;;;;;;5022372;28;20464;-47
2021/12/02 07:26:42;;;;;;;3.38;1.40;;;24.10;39.20;;;;;;5025247;28;20100;-44
2021/12/02 07:29:09;;;;;;;3.83;1.60;;;24.20;39.20;;;;;;5008574;28;20060;-45
2021/12/02 07:31:37;;;;;;;3.60;1.48;;;24.20;39.20;;;;;;5026449;28;20053;-44
2021/12/02 07:34:03;;;;;;;3.95;1.80;;;24.20;39.10;;;;;;5023884;28;20017;-44
2021/12/02 07:36:31;;;;;;;2.78;1.08;;;24.20;39.10;;;;;;5022965;28;20036;-45
2021/12/02 07:38:56;;;;;;;3.03;1.48;;;24.20;39.00;;;;;;5024428;28;20031;-44
2021/12/02 07:41:22;;;;;;;2.90;1.45;;;24.20;39.10;;;;;;5024816;28;20025;-46
2021/12/02 07:43:48;;;;;;;4.35;1.75;;;24.20;39.00;;;;;;5025500;28;20254;-46
2021/12/02 07:46:14;;;;;;;4.45;1.55;;;24.30;39.20;;;;;;5024475;28;20468;-46
2021/12/02 07:48:40;;;;;;;5.00;2.10;;;24.30;39.30;;;;;;5025150;28;20024;-45
2021/12/02 07:51:17;;;;;;;5.70;1.40;;;24.30;39.10;;;;;;5026635;28;20025;-46
2021/12/02 07:53:45;;;;;;;3.85;1.27;;;24.30;39.00;;;;;;5024354;28;20053;-45
2021/12/02 07:56:17;;;;;;;3.10;1.45;;;24.30;38.90;;;;;;5024947;28;20093;-45
2021/12/02 07:58:45;;;;;;;3.30;1.40;;;24.30;38.80;;;;;;5023921;28;20029;-45
2021/12/02 08:01:12;;;;;;;8.13;1.60;;;24.30;38.80;;;;;;5024671;28;20378;-46
2021/12/02 08:03:48;;;;;;;2.53;1.20;;;24.30;38.70;;;;;;5024799;28;20041;-46
2021/12/02 08:06:15;;;;;;;3.92;1.40;;;24.30;38.70;;;;;;5024864;28;20057;-45
2021/12/02 08:08:42;;;;;;;4.03;1.48;;;24.30;38.50;;;;;;5024515;28;20701;-45
2021/12/02 08:11:09;;;;;;;2.70;1.33;;;24.30;38.60;;;;;;5025845;28;20104;-46
2021/12/02 08:13:35;;;;;;;3.38;1.73;;;24.30;38.50;;;;;;5024806;28;20087;-45
2021/12/02 08:16:04;;;;;;;3.67;1.33;;;24.30;38.50;;;;;;5024231;28;20178;-46
2021/12/02 08:18:29;;;;;;;2.50;1.17;;;24.30;38.50;;;;;;5025701;28;20092;-45
2021/12/02 08:20:55;;;;;;;3.90;1.30;;;24.30;38.40;;;;;;5031498;28;20117;-46
2021/12/02 08:23:22;;;;;;;3.63;1.40;;;24.40;38.40;;;;;;5032047;28;20033;-45
2021/12/02 08:25:48;;;;;;;3.05;1.30;;;24.30;38.40;;;;;;5029690;28;20037;-46
2021/12/02 08:28:15;;;;;;;4.00;1.70;;;24.30;38.30;;;;;;5024235;28;20033;-46
2021/12/02 08:30:40;;;;;;;2.72;1.27;;;24.30;38.30;;;;;;5026105;28;20036;-47
2021/12/02 08:33:07;;;;;;;2.75;1.25;;;24.30;38.30;;;;;;5025674;28;20025;-47
2021/12/02 08:35:34;;;;;;;3.05;1.40;;;24.30;38.20;;;;;;5026706;28;20320;-47
2021/12/02 08:38:07;;;;;;;3.33;1.33;;;24.30;38.20;;;;;;5026441;28;20042;-46
2021/12/02 08:40:34;;;;;;;4.07;1.60;;;24.30;38.20;;;;;;5026190;28;20123;-47
2021/12/02 08:43:01;;;;;;;3.35;1.58;;;24.30;38.20;;;;;;5024859;28;20397;-47
2021/12/02 08:45:31;;;;;;;2.53;1.15;;;24.20;38.20;;;;;;5027194;28;20056;-46
2021/12/02 08:47:59;;;;;;;3.25;1.40;;;24.20;38.30;;;;;;5034118;28;20033;-46
2021/12/02 08:50:25;;;;;;;3.53;1.30;;;24.20;38.30;;;;;;5030352;28;20457;-46
2021/12/02 08:52:52;;;;;;;2.50;1.25;;;24.20;38.30;;;;;;5028820;28;20048;-46
2021/12/02 08:55:20;;;;;;;3.30;1.40;;;24.20;38.30;;;;;;5026192;28;20113;-46
2021/12/02 08:57:50;;;;;;;2.90;1.10;;;24.20;38.30;;;;;;5015141;28;20421;-46
2021/12/02 09:00:20;;;;;;;3.20;1.25;;;24.20;38.30;;;;;;5006237;28;20037;-47
2021/12/02 09:02:46;;;;;;;2.55;1.05;;;24.20;38.20;;;;;;5006191;28;20038;-47
2021/12/02 09:05:12;;;;;;;2.95;1.35;;;24.20;38.30;;;;;;5005006;28;20371;-47
2021/12/02 09:07:39;;;;;;;2.92;1.58;;;24.10;38.30;;;;;;5005994;28;20386;-46
2021/12/02 09:10:06;;;;;;;3.03;1.40;;;24.10;38.30;;;;;;5006008;28;20092;-48
2021/12/02 09:12:33;;;;;;;2.85;1.15;;;24.10;38.30;;;;;;5014253;28;20030;-47
2021/12/02 09:14:59;;;;;;;2.28;0.93;;;24.10;38.40;;;;;;5006165;28;20030;-46
2021/12/02 09:17:25;;;;;;;2.65;1.10;;;24.10;38.40;;;;;;5006264;28;20022;-47
2021/12/02 09:19:51;;;;;;;2.25;0.90;;;24.10;38.40;;;;;;5006093;28;20101;-47
2021/12/02 09:22:17;;;;;;;3.60;1.25;;;24.10;38.40;;;;;;5005110;28;20439;-46
2021/12/02 09:24:43;;;;;;;2.40;1.10;;;24.10;38.50;;;;;;5006348;28;20056;-47
2021/12/02 09:27:09;;;;;;;2.40;1.38;;;24.10;38.50;;;;;;5011091;28;20112;-46
2021/12/02 09:29:35;;;;;;;2.50;1.15;;;24.10;38.60;;;;;;5025375;28;20590;-46
2021/12/02 09:32:02;;;;;;;2.22;1.00;;;24.10;38.60;;;;;;5025448;28;20100;-47
2021/12/02 09:34:28;;;;;;;2.35;0.98;;;24.10;38.50;;;;;;5025540;28;20021;-47
2021/12/02 09:36:55;;;;;;;2.75;1.30;;;24.10;38.50;;;;;;5025365;28;20026;-46
2021/12/02 09:39:22;;;;;;;2.58;1.10;;;24.10;38.60;;;;;;5024963;28;20107;-46
2021/12/02 09:41:47;;;;;;;2.80;1.08;;;24.10;38.60;;;;;;5022985;28;20116;-47
2021/12/02 09:44:15;;;;;;;3.78;1.63;;;24.10;38.60;;;;;;5016329;28;20108;-47
2021/12/02 09:46:41;;;;;;;2.88;1.30;;;24.10;38.60;;;;;;5024970;28;20572;-46
2021/12/02 09:49:10;;;;;;;3.58;1.50;;;24.10;38.60;;;;;;5024975;28;20407;-46
2021/12/02 09:51:46;;;;;;;2.30;1.10;;;24.10;38.60;;;;;;5044349;28;20112;-45
2021/12/02 09:54:22;;;;;;;1.92;0.90;;;24.10;38.60;;;;;;5044977;28;20025;-46
2021/12/02 09:56:51;;;;;;;2.47;1.05;;;24.10;38.60;;;;;;5041403;28;20021;-46
2021/12/02 09:59:34;;;;;;;2.72;0.88;;;24.00;38.50;;;;;;5023142;28;20112;-45
2021/12/02 10:02:06;;;;;;;2.85;1.33;;;24.10;38.60;;;;;;5019302;28;20033;-45
2021/12/02 10:04:39;;;;;;;2.85;1.25;;;24.00;38.50;;;;;;5023191;28;20572;-45
2021/12/02 10:07:04;;;;;;;;;;;24.00;38.50;;;;;;5025615;28;20030;-45
2021/12/02 10:09:43;;;;;;;2.33;0.95;;;24.10;38.60;;;;;;5005599;28;19960;-45
2021/12/02 10:12:16;;;;;;;2.22;0.90;;;24.00;38.60;;;;;;5013911;28;20041;-45
2021/12/02 10:14:54;;;;;;;1.90;0.80;;;24.00;38.60;;;;;;5016015;28;20211;-45
2021/12/02 10:23:26;;;;;;;2.47;0.90;;;24.00;38.60;;;;;;5021962;28;20025;-45
2021/12/02 10:25:59;;;;;;;2.03;0.85;;;24.00;38.80;;;;;;5020645;28;20041;-45
2021/12/02 10:28:30;;;;;;;4.20;1.10;;;24.00;38.90;;;;;;5024007;28;20069;-45
2021/12/02 10:31:04;;;;;;;2.08;1.02;;;23.90;39.00;;;;;;5024102;28;20108;-47
2021/12/02 10:33:38;;;;;;;3.05;0.88;;;23.90;39.00;;;;;;5024311;28;20032;-46
2021/12/02 10:36:28;;;;;;;2.30;0.93;;;23.90;38.90;;;;;;5024260;28;20096;-46
2021/12/02 10:38:57;;;;;;;1.52;0.70;;;23.90;38.90;;;;;;5024891;28;20532;-46
2021/12/02 10:41:27;;;;;;;2.53;1.08;;;24.00;38.90;;;;;;5024344;28;20033;-46
2021/12/02 10:44:24;;;;;;;2.25;1.08;;;23.90;38.90;;;;;;5023854;28;20096;-46
2021/12/02 10:47:17;;;;;;;1.70;0.80;;;23.90;39.00;;;;;;5022674;28;20033;-46
2021/12/02 10:49:50;;;;;;;2.17;0.80;;;23.90;38.90;;;;;;5028201;28;20037;-46
2021/12/02 10:52:20;;;;;;;1.95;0.88;;;23.90;38.90;;;;;;5047604;28;20025;-46
2021/12/02 10:54:55;;;;;;;2.03;0.70;;;23.90;38.90;;;;;;5027956;28;20025;-46
2021/12/02 10:57:27;;;;;;;1.60;0.75;;;23.90;38.90;;;;;;5023504;28;20022;-45
2021/12/02 11:00:01;;;;;;;2.13;0.90;;;23.90;38.90;;;;;;5027910;28;20038;-45
2021/12/02 11:02:36;;;;;;;1.40;0.68;;;23.90;38.90;;;;;;5027924;28;20516;-45
2021/12/02 11:05:30;;;;;;;1.95;0.90;;;24.00;38.90;;;;;;5027561;28;20421;-45
2021/12/02 11:08:05;;;;;;;2.35;0.82;;;23.90;38.90;;;;;;5026279;28;20037;-45
2021/12/02 11:10:43;;;;;;;1.73;0.75;;;23.90;38.90;;;;;;5027119;28;20053;-45
2021/12/02 11:13:16;;;;;;;1.98;0.80;;;23.90;38.90;;;;;;5015889;28;20040;-46
2021/12/02 11:15:42;;;;;;;2.90;1.10;;;23.90;38.90;;;;;;5008300;28;20030;-45
2021/12/02 11:18:10;;;;;;;1.65;0.82;;;24.00;38.90;;;;;;5007794;28;20045;-45
2021/12/02 11:20:42;;;;;;;2.42;0.88;;;24.00;38.90;;;;;;5008429;28;20037;-47
2021/12/02 11:23:11;;;;;;;2.28;0.80;;;24.00;38.90;;;;;;5007499;28;20029;-45
2021/12/02 11:25:52;;;;;;;1.85;0.65;;;24.00;38.90;;;;;;5009682;28;20382;-46
2021/12/02 11:28:21;;;;;;;1.55;0.85;;;24.00;38.90;;;;;;5014277;28;20108;-46
2021/12/02 11:30:47;;;;;;;2.15;0.77;;;24.00;38.80;;;;;;5007756;28;20687;-45
2021/12/02 11:33:18;;;;;;;2.40;0.60;;;24.00;38.90;;;;;;5022562;28;20088;-45
2021/12/02 11:35:44;;;;;;;2.67;0.63;;;24.00;38.80;;;;;;5007070;28;20109;-46
2021/12/02 11:38:17;;;;;;;1.17;0.55;;;24.00;38.80;;;;;;5007231;28;20026;-46
2021/12/02 11:40:48;;;;;;;1.40;0.50;;;24.00;38.80;;;;;;5010610;28;20061;-45
2021/12/02 11:43:17;;;;;;;2.13;0.73;;;24.00;38.80;;;;;;5014583;28;20062;-46
2021/12/02 11:45:47;;;;;;;1.17;0.45;;;24.00;38.80;;;;;;5007460;28;20465;-45
2021/12/02 11:48:16;;;;;;;1.63;0.70;;;24.00;38.80;;;;;;5007469;28;20033;-45
2021/12/02 11:50:43;;;;;;;2.13;0.75;;;24.00;38.80;;;;;;5030815;28;20021;-45
2021/12/02 11:53:08;;;;;;;2.00;0.80;;;24.00;38.70;;;;;;5046457;28;20076;-44
2021/12/02 11:55:38;;;;;;;1.42;0.63;;;24.00;38.70;;;;;;5047352;28;20049;-45
2021/12/02 11:58:04;;;;;;;1.80;0.95;;;24.00;38.70;;;;;;5036111;28;20033;-45
2021/12/02 12:00:31;;;;;;;1.23;0.52;;;24.00;38.80;;;;;;5026994;28;20044;-45
2021/12/02 12:03:02;;;;;;;1.65;0.43;;;23.90;39.40;;;;;;5026087;28;20037;-45
2021/12/02 12:05:35;;;;;;;1.15;0.50;;;23.90;38.70;;;;;;5026365;28;20035;-45
2021/12/02 12:08:01;;;;;;;1.98;0.60;;;23.90;38.70;;;;;;5027040;28;20029;-46
2021/12/02 12:10:35;;;;;;;1.55;0.60;;;23.90;38.70;;;;;;5026205;28;20026;-46
2021/12/02 12:13:22;;;;;;;1.70;0.68;;;23.90;38.70;;;;;;5025983;28;20053;-45
2021/12/02 12:15:49;;;;;;;1.17;0.60;;;23.90;38.70;;;;;;5027229;28;20041;-46
2021/12/02 12:18:37;;;;;;;1.40;0.70;;;23.90;38.70;;;;;;5026375;28;20592;-46
2021/12/02 12:21:07;;;;;;;1.90;0.50;;;23.90;38.80;;;;;;5026979;28;20147;-46
2021/12/02 12:23:36;;;;;;;1.23;0.57;;;23.90;38.70;;;;;;5024088;28;20033;-45
2021/12/02 12:26:27;;;;;;;1.52;0.60;;;23.90;38.70;;;;;;5027334;28;20021;-47
2021/12/02 12:29:08;;;;;;;2.92;0.80;;;23.90;38.70;;;;;;5023654;28;20100;-46
2021/12/02 12:34:33;;;;;;;1.67;0.50;;;23.80;38.70;;;;;;5017490;28;20154;-49
2021/12/02 12:37:01;;;;;;;1.30;0.60;;;23.80;38.70;;;;;;5026832;28;20033;-46
2021/12/02 12:39:32;;;;;;;1.83;0.63;;;23.80;38.70;;;;;;5026545;28;20578;-46
2021/12/02 12:42:19;;;;;;;1.45;0.70;;;23.80;38.80;;;;;;5025567;28;20375;-47
2021/12/02 12:44:49;;;;;;;1.40;0.40;;;23.80;38.90;;;;;;5006783;28;20038;-47
2021/12/02 12:47:16;;;;;;;1.90;0.82;;;23.80;38.90;;;;;;5006310;28;20034;-47
2021/12/02 12:49:43;;;;;;;1.55;0.70;;;23.80;39.00;;;;;;5011296;28;20032;-47
2021/12/02 12:52:17;;;;;;;1.25;0.60;;;23.80;39.00;;;;;;5026271;28;20030;-46
2021/12/02 12:55:16;;;;;;;1.30;0.45;;;23.80;38.90;;;;;;5026281;28;20113;-48
2021/12/02 12:58:17;;;;;;;1.70;0.60;;;23.70;39.00;;;;;;5019762;28;20495;-47
2021/12/02 13:00:57;;;;;;;1.67;0.50;;;23.80;39.00;;;;;;5006248;28;20042;-46
2021/12/02 13:03:44;;;;;;;2.67;0.90;;;23.80;39.00;;;;;;5006077;28;20352;-45
2021/12/02 13:06:18;;;;;;;1.38;0.57;;;23.80;39.00;;;;;;5006416;28;20026;-46
2021/12/02 13:08:54;;;;;;;1.05;0.38;;;23.80;39.00;;;;;;5020931;28;20518;-45
2021/12/02 13:11:26;;;;;;;1.27;0.65;;;23.80;39.00;;;;;;5031144;28;20031;-46
2021/12/02 13:13:55;;;;;;;1.77;0.73;;;23.80;39.00;;;;;;5019640;28;20041;-45
2021/12/02 13:16:21;;;;;;;1.85;0.60;;;23.80;39.00;;;;;;5025050;28;20037;-46
2021/12/02 13:18:48;;;;;;;2.15;0.80;;;23.80;38.90;;;;;;5025742;28;20026;-46
2021/12/02 13:21:29;;;;;;;1.95;0.50;;;23.80;38.90;;;;;;5026148;28;20136;-46